Time;durP1;ratioP1;P1;durP2;ratioP2;P2;SDS_P1;SDS_P2;PMS_P1;PMS_P2;Temp;Humidity;BMP_temperature;BMP_pressure;BME280_temperature;BME280_humidity;BME280_pressure;Samples;Min_cycle;Max_cycle;Signal;HPM_P1;HPM_P2
2022/04/02 08:16:50;;;;;;;15.17;8.03;;;-1.40;99.90;;;;;;5142927;27;20298;-81
2022/04/02 08:19:20;;;;;;;12.53;8.43;;;-1.20;99.90;;;;;;5139218;28;20531;-82
2022/04/02 08:21:46;;;;;;;13.10;9.03;;;;;;;;;;5142279;27;20410;-82
2022/04/02 08:24:12;;;;;;;11.40;8.53;;;-1.10;99.90;;;;;;5141634;28;20886;-82
2022/04/02 08:27:00;;;;;;;16.03;9.47;;;-0.80;99.90;;;;;;5140885;27;20433;-82
2022/04/02 08:29:50;;;;;;;11.93;9.10;;;-0.80;99.90;;;;;;5139847;28;20182;-82
2022/04/02 08:32:46;;;;;;;11.93;9.00;;;-0.70;99.90;;;;;;5142303;27;20564;-82
2022/04/02 08:35:17;;;;;;;8.47;7.03;;;-0.80;99.90;;;;;;5141236;27;20963;-82
2022/04/02 08:37:58;;;;;;;11.47;8.63;;;-0.90;99.90;;;;;;5142012;27;20427;-82
2022/04/02 08:40:32;;;;;;;15.23;9.27;;;-1.00;99.90;;;;;;5142157;27;20476;-82
2022/04/02 08:43:13;;;;;;;9.30;7.60;;;-1.00;99.90;;;;;;5141707;27;20416;-82
2022/04/02 08:46:14;;;;;;;8.70;7.67;;;-1.00;99.90;;;;;;5139480;28;20408;-82
2022/04/02 08:48:50;;;;;;;11.63;9.20;;;-1.10;99.90;;;;;;5127193;28;20876;-82
2022/04/02 08:51:38;;;;;;;11.20;9.00;;;-1.10;99.90;;;;;;5140262;28;20488;-82
2022/04/02 08:54:09;;;;;;;11.53;9.03;;;-1.20;99.90;;;;;;5140469;28;20420;-82
2022/04/02 08:56:43;;;;;;;11.87;8.73;;;-1.10;99.90;;;;;;5142732;28;20482;-83
2022/04/02 08:59:30;;;;;;;14.30;9.47;;;-1.10;99.90;;;;;;5144889;27;20422;-83
2022/04/02 09:02:10;;;;;;;11.73;7.27;;;-1.00;99.90;;;;;;5145500;27;20415;-82
2022/04/02 09:05:17;;;;;;;12.30;7.43;;;-1.00;99.90;;;;;;5150924;28;20396;-82
2022/04/02 09:07:56;;;;;;;11.73;8.00;;;-1.10;99.90;;;;;;5151090;28;20435;-82
2022/04/02 09:11:08;;;;;;;14.73;8.20;;;-1.10;99.90;;;;;;5152981;27;20397;-82
2022/04/02 09:13:43;;;;;;;9.33;7.70;;;-1.10;99.90;;;;;;5144597;28;20417;-82
2022/04/02 09:16:34;;;;;;;11.90;9.13;;;-1.10;99.90;;;;;;5148285;28;20494;-82
2022/04/02 09:19:34;;;;;;;11.17;8.07;;;-1.10;99.90;;;;;;5142279;28;20432;-82
2022/04/02 09:22:30;;;;;;;13.17;9.23;;;-1.10;99.90;;;;;;5146738;28;20416;-82
2022/04/02 09:25:17;;;;;;;12.67;9.67;;;-1.10;99.90;;;;;;5141429;28;20420;-81
2022/04/02 09:28:05;;;;;;;13.60;9.03;;;-1.00;99.90;;;;;;5125919;28;20528;-81
2022/04/02 09:31:01;;;;;;;11.70;10.33;;;-1.00;99.90;;;;;;5122920;28;20424;-81
2022/04/02 09:34:07;;;;;;;16.20;10.93;;;-0.90;99.90;;;;;;5124323;28;20470;-81
2022/04/02 09:37:04;;;;;;;13.83;10.30;;;-0.90;99.90;;;;;;5122057;28;20528;-81
2022/04/02 09:39:51;;;;;;;14.43;11.10;;;-0.80;99.90;;;;;;5122548;27;20978;-81
2022/04/02 09:42:37;;;;;;;13.10;9.50;;;-0.90;99.90;;;;;;5119348;28;20427;-81
2022/04/02 09:45:09;;;;;;;10.63;9.40;;;-0.90;99.90;;;;;;5120549;28;20413;-81
2022/04/02 09:48:06;;;;;;;12.33;8.47;;;-0.80;99.90;;;;;;5124317;28;20504;-82
2022/04/02 09:50:33;;;;;;;10.50;8.97;;;-0.60;99.90;;;;;;5120976;28;20410;-82
2022/04/02 09:53:12;;;;;;;13.03;8.97;;;-0.60;99.90;;;;;;5118930;28;20445;-82
2022/04/02 09:56:16;;;;;;;9.97;7.70;;;-0.50;99.90;;;;;;5120933;28;20452;-82
2022/04/02 09:59:04;;;;;;;16.63;9.67;;;-0.40;99.90;;;;;;5107762;28;20429;-82
2022/04/02 10:01:47;;;;;;;13.03;8.80;;;-0.30;99.90;;;;;;5121903;28;20427;-82
2022/04/02 10:04:58;;;;;;;9.83;8.47;;;-0.10;99.90;;;;;;5119518;28;20406;-82
2022/04/02 10:07:57;;;;;;;13.20;10.10;;;-0.10;99.90;;;;;;5077725;28;20565;-82
2022/04/02 10:10:28;;;;;;;13.13;10.80;;;0.10;99.90;;;;;;5080058;28;20775;-82
2022/04/02 10:12:55;;;;;;;11.23;10.03;;;0.20;99.90;;;;;;5107968;28;20824;-82
2022/04/02 10:15:22;;;;;;;10.40;8.30;;;0.20;99.90;;;;;;5123612;28;20460;-82
2022/04/02 10:17:53;;;;;;;9.87;8.73;;;0.30;99.90;;;;;;5123606;28;20429;-82
2022/04/02 10:20:20;;;;;;;10.23;7.93;;;0.50;99.90;;;;;;5123169;28;20406;-82
2022/04/02 10:22:55;;;;;;;7.53;6.73;;;0.30;99.90;;;;;;5121871;28;20473;-82
2022/04/02 10:25:27;;;;;;;8.20;7.43;;;0.10;99.90;;;;;;5122242;28;20409;-83
2022/04/02 10:27:54;;;;;;;10.73;8.60;;;0.00;99.90;;;;;;5122502;28;20429;-83
2022/04/02 10:30:24;;;;;;;11.20;8.83;;;0.00;99.90;;;;;;5124226;28;20510;-83
2022/04/02 10:33:26;;;;;;;11.67;9.20;;;0.20;99.90;;;;;;5123838;28;20433;-83
2022/04/02 10:35:49;;;;;;;9.67;8.37;;;0.10;99.90;;;;;;5128191;28;20475;-83
2022/04/02 10:38:37;;;;;;;8.57;7.70;;;0.30;99.90;;;;;;5126082;28;20776;-83
2022/04/02 10:41:13;;;;;;;9.97;8.27;;;0.40;99.90;;;;;;5127440;28;20409;-83
2022/04/02 10:43:45;;;;;;;12.97;10.10;;;0.20;99.90;;;;;;5128684;28;20412;-83
2022/04/02 10:46:15;;;;;;;11.83;8.90;;;0.40;99.90;;;;;;5128819;28;20409;-83
2022/04/02 10:48:55;;;;;;;9.53;8.63;;;0.50;99.90;;;;;;5128865;27;20435;-83
2022/04/02 10:51:23;;;;;;;9.93;7.67;;;0.70;99.90;;;;;;5125862;28;20949;-82
2022/04/02 10:53:59;;;;;;;8.97;8.07;;;0.60;99.90;;;;;;5127991;28;20412;-82
2022/04/02 10:56:31;;;;;;;10.83;8.97;;;0.40;99.90;;;;;;5125406;28;20879;-82
2022/04/02 10:58:59;;;;;;;11.43;9.73;;;0.20;99.90;;;;;;5127203;28;20878;-82
2022/04/02 11:01:26;;;;;;;11.73;9.07;;;0.30;99.90;;;;;;5126155;28;20402;-82
2022/04/02 11:03:57;;;;;;;14.13;10.20;;;0.10;99.90;;;;;;5125550;28;20417;-82
2022/04/02 11:06:43;;;;;;;17.07;11.93;;;0.10;99.90;;;;;;5125894;28;20416;-83
2022/04/02 11:09:29;;;;;;;15.40;11.20;;;0.40;99.90;;;;;;5127141;28;20428;-82
2022/04/02 11:12:07;;;;;;;13.43;11.10;;;0.20;99.90;;;;;;5125684;28;20417;-82
2022/04/02 11:14:42;;;;;;;14.60;9.63;;;0.10;99.90;;;;;;5124431;28;20408;-80
2022/04/02 11:17:09;;;;;;;14.87;10.70;;;0.10;99.90;;;;;;5126335;28;20413;-82
2022/04/02 11:19:56;;;;;;;16.57;10.03;;;0.20;99.90;;;;;;5127953;28;20409;-82
2022/04/02 11:22:34;;;;;;;13.83;9.83;;;0.30;99.90;;;;;;5125646;28;20405;-82
2022/04/02 11:25:10;;;;;;;14.27;10.80;;;0.30;99.90;;;;;;5125670;28;20405;-82
2022/04/02 11:27:38;;;;;;;16.53;10.97;;;0.40;99.90;;;;;;5127190;28;20425;-82
2022/04/02 11:30:11;;;;;;;13.10;10.57;;;0.40;99.90;;;;;;5126144;28;20413;-82
2022/04/02 11:32:45;;;;;;;12.57;10.37;;;0.50;99.90;;;;;;5122721;28;20413;-82
2022/04/02 11:35:17;;;;;;;11.00;9.90;;;0.60;99.90;;;;;;5124906;28;20451;-83
2022/04/02 11:38:24;;;;;;;16.40;11.47;;;0.80;99.90;;;;;;5127462;28;20415;-79
2022/04/02 11:41:20;;;;;;;13.90;12.27;;;0.70;99.90;;;;;;5109772;28;20487;-80
2022/04/02 11:43:48;;;;;;;12.40;11.10;;;0.40;99.90;;;;;;5128141;28;20414;-77
2022/04/02 11:46:18;;;;;;;17.03;12.30;;;0.40;99.90;;;;;;5130802;28;20404;-82
2022/04/02 11:48:54;;;;;;;12.70;10.97;;;0.20;99.90;;;;;;5126976;28;20425;-82
2022/04/02 11:51:31;;;;;;;17.33;12.83;;;0.10;99.90;;;;;;5123222;28;20197;-83
2022/04/02 11:54:08;;;;;;;16.30;12.13;;;0.20;99.90;;;;;;5123061;28;20417;-81
2022/04/02 11:56:36;;;;;;;16.73;11.70;;;0.30;99.90;;;;;;5123993;28;20440;-82
2022/04/02 11:59:08;;;;;;;15.63;12.27;;;0.30;99.90;;;;;;5122892;28;20810;-82
2022/04/02 12:01:43;;;;;;;16.00;11.00;;;0.10;99.90;;;;;;5120526;28;20485;-80
2022/04/02 12:04:14;;;;;;;17.07;12.53;;;0.10;99.90;;;;;;5121649;28;20405;-80
2022/04/02 12:06:42;;;;;;;14.80;11.50;;;-0.10;99.90;;;;;;5121867;28;20171;-80
2022/04/02 12:09:19;;;;;;;13.97;11.63;;;-0.20;99.90;;;;;;5118032;28;20429;-81
2022/04/02 12:11:59;;;;;;;15.43;11.70;;;-0.20;99.90;;;;;;5119461;28;20770;-81
2022/04/02 12:14:31;;;;;;;13.60;11.63;;;-0.10;99.90;;;;;;5119436;28;20439;-80
2022/04/02 12:17:03;;;;;;;18.30;11.60;;;-0.30;99.90;;;;;;5118762;28;20421;-81
2022/04/02 12:19:42;;;;;;;15.60;11.47;;;-0.30;99.90;;;;;;5120086;28;20397;-80
2022/04/02 12:22:20;;;;;;;13.83;11.50;;;-0.50;99.90;;;;;;5119966;28;20484;-81
2022/04/02 12:24:49;;;;;;;14.43;11.77;;;-0.20;99.90;;;;;;5119919;28;20412;-81
2022/04/02 12:27:21;;;;;;;19.47;12.47;;;-0.10;99.90;;;;;;5119408;28;20417;-81
2022/04/02 12:29:49;;;;;;;12.73;10.20;;;0.40;99.90;;;;;;5120564;28;20405;-81
2022/04/02 12:32:37;;;;;;;11.37;9.70;;;0.40;99.90;;;;;;5119618;28;20411;-81
2022/04/02 12:35:06;;;;;;;15.73;12.17;;;0.10;99.90;;;;;;5121202;28;21014;-81
2022/04/02 12:37:49;;;;;;;14.33;10.83;;;0.00;99.90;;;;;;5120369;28;21112;-81
2022/04/02 12:40:24;;;;;;;13.70;11.17;;;0.20;99.90;;;;;;5123040;28;20420;-80
2022/04/02 12:42:55;;;;;;;13.07;11.60;;;0.40;99.90;;;;;;5121372;28;20412;-81
2022/04/02 12:45:23;;;;;;;15.73;11.77;;;0.40;99.90;;;;;;5123804;28;20870;-81
2022/04/02 12:48:11;;;;;;;11.20;9.57;;;0.40;99.90;;;;;;5122033;28;20558;-78
2022/04/02 12:50:49;;;;;;;15.03;11.87;;;0.30;99.90;;;;;;5124465;28;20394;-80
2022/04/02 12:53:38;;;;;;;12.17;10.70;;;0.50;99.90;;;;;;5123654;28;20389;-79
2022/04/02 12:56:09;;;;;;;15.93;11.40;;;0.50;99.90;;;;;;5123385;28;20797;-79
2022/04/02 12:58:37;;;;;;;11.77;10.00;;;0.50;99.90;;;;;;5124170;28;20426;-79
2022/04/02 13:01:15;;;;;;;13.03;11.00;;;0.30;99.90;;;;;;5122009;28;20413;-78
2022/04/02 13:03:44;;;;;;;10.90;9.53;;;0.50;99.90;;;;;;5117770;28;20570;-78
2022/04/02 13:06:20;;;;;;;14.90;11.87;;;0.60;99.90;;;;;;5120886;28;20911;-81
2022/04/02 13:09:07;;;;;;;12.57;11.27;;;0.70;99.90;;;;;;5125087;28;20435;-78
2022/04/02 13:11:51;;;;;;;11.90;10.43;;;0.70;99.90;;;;;;5121515;27;20420;-78
2022/04/02 13:14:19;;;;;;;10.70;9.20;;;0.60;99.90;;;;;;5119642;28;20394;-78
2022/04/02 13:16:49;;;;;;;12.20;10.17;;;0.50;99.90;;;;;;5122981;28;20461;-78
2022/04/02 13:22:12;;;;;;;102.40;63.10;;;0.30;99.90;;;;;;5126501;28;20393;-79
2022/04/02 13:24:57;;;;;;;66.77;42.63;;;0.30;99.90;;;;;;5124153;28;20397;-79
2022/04/02 13:27:32;;;;;;;19.80;16.37;;;0.40;99.90;;;;;;5124882;28;20437;-79
2022/04/02 13:30:03;;;;;;;14.70;10.87;;;0.60;99.90;;;;;;5126116;28;20500;-79
2022/04/02 13:32:43;;;;;;;10.27;8.80;;;0.70;99.90;;;;;;5126605;28;20883;-78
2022/04/02 13:35:54;;;;;;;11.43;10.33;;;0.70;99.90;;;;;;5125811;28;20866;-80
2022/04/02 13:38:29;;;;;;;14.40;12.93;;;0.60;99.90;;;;;;5129549;28;20926;-79
2022/04/02 13:40:57;;;;;;;14.17;10.37;;;0.70;99.90;;;;;;5128613;28;20416;-79
2022/04/02 13:43:35;;;;;;;15.03;10.53;;;0.90;99.90;;;;;;5126622;28;20736;-79
2022/04/02 13:46:08;;;;;;;11.77;9.30;;;0.60;99.90;;;;;;5126577;28;20608;-78
2022/04/02 13:49:03;;;;;;;10.60;8.30;;;0.30;99.90;;;;;;5126615;28;20460;-78
2022/04/02 13:51:31;;;;;;;15.93;9.67;;;0.10;99.90;;;;;;5124826;28;20462;-78
2022/04/02 13:54:04;;;;;;;12.10;9.30;;;0.00;99.90;;;;;;5125842;28;20443;-79
2022/04/02 13:56:35;;;;;;;10.07;8.77;;;0.00;99.90;;;;;;5126681;28;20478;-78
2022/04/02 13:59:06;;;;;;;10.53;9.43;;;-0.10;99.90;;;;;;5124658;28;20452;-79
2022/04/02 14:01:49;;;;;;;12.10;10.07;;;-0.10;99.90;;;;;;5122641;28;20776;-78
2022/04/02 14:04:33;;;;;;;16.07;9.47;;;-0.10;99.90;;;;;;5124087;28;20398;-79
2022/04/02 14:07:04;;;;;;;15.13;10.30;;;-0.10;99.90;;;;;;5123231;28;20394;-78
2022/04/02 14:09:32;;;;;;;12.33;9.00;;;0.20;99.90;;;;;;5123157;28;20423;-79
2022/04/02 14:12:08;;;;;;;10.33;8.47;;;0.20;99.90;;;;;;5122581;28;20428;-79
2022/04/02 14:15:08;;;;;;;12.93;10.13;;;0.30;99.90;;;;;;5122360;28;20907;-79
2022/04/02 14:17:44;;;;;;;12.30;9.87;;;0.30;99.90;;;;;;5122636;28;20438;-78
2022/04/02 14:20:15;;;;;;;12.30;9.77;;;0.30;99.90;;;;;;5120919;28;20405;-78
2022/04/02 14:22:49;;;;;;;13.40;11.57;;;0.20;99.90;;;;;;5122008;28;20382;-78
2022/04/02 14:25:40;;;;;;;13.13;10.40;;;0.40;99.90;;;;;;5120470;28;20508;-78
2022/04/02 14:28:09;;;;;;;10.57;9.20;;;0.60;99.90;;;;;;5121560;28;20828;-78
2022/04/02 14:30:45;;;;;;;12.60;10.57;;;0.50;99.90;;;;;;5121695;28;20405;-78
2022/04/02 14:33:52;;;;;;;13.57;10.57;;;0.50;99.90;;;;;;5121474;28;20397;-78
2022/04/02 14:36:21;;;;;;;13.57;10.30;;;0.50;99.90;;;;;;5103119;28;20517;-78
2022/04/02 14:39:07;;;;;;;9.77;8.77;;;0.30;99.90;;;;;;5119303;28;20464;-79
2022/04/02 14:41:57;;;;;;;8.80;7.13;;;0.10;99.90;;;;;;5119500;28;20414;-78
2022/04/02 14:44:38;;;;;;;9.13;7.30;;;0.00;99.90;;;;;;5120680;28;20432;-79
2022/04/02 14:47:06;;;;;;;9.47;8.03;;;-0.30;99.90;;;;;;5120504;28;20389;-79
2022/04/02 14:50:04;;;;;;;9.83;8.70;;;-0.50;99.90;;;;;;5121859;28;20766;-79
2022/04/02 14:52:38;;;;;;;9.00;6.37;;;-0.50;99.90;;;;;;5119068;28;20441;-77
2022/04/02 14:55:25;;;;;;;7.43;6.00;;;-0.40;99.90;;;;;;5120066;28;20491;-78
2022/04/02 14:58:15;;;;;;;37.67;34.13;;;-0.30;99.90;;;;;;5119043;28;20508;-78
2022/04/02 15:01:25;;;;;;;8.77;7.83;;;-0.30;99.90;;;;;;5117422;28;20425;-78
2022/04/02 15:04:12;;;;;;;18.67;15.57;;;-0.40;99.90;;;;;;5117784;28;20406;-78
2022/04/02 15:07:16;;;;;;;10.67;8.73;;;-0.30;99.90;;;;;;5116006;28;20401;-77
2022/04/02 15:10:03;;;;;;;6.83;6.13;;;-0.20;99.90;;;;;;5115640;28;20381;-77
2022/04/02 15:12:34;;;;;;;10.67;8.87;;;-0.20;99.90;;;;;;5115099;28;20816;-77
2022/04/02 15:15:02;;;;;;;52.03;34.07;;;-0.10;99.90;;;;;;5114529;28;20517;-78
2022/04/02 15:17:28;;;;;;;9.57;8.30;;;-0.10;99.90;;;;;;5115988;28;20427;-78
2022/04/02 15:20:18;;;;;;;9.03;7.37;;;0.10;99.90;;;;;;5114854;28;20408;-77
2022/04/02 15:22:45;;;;;;;8.23;6.57;;;0.00;99.90;;;;;;5114736;28;20472;-77
2022/04/02 15:25:25;;;;;;;11.37;9.00;;;0.10;99.90;;;;;;5115052;28;20443;-77
2022/04/02 15:27:53;;;;;;;10.40;7.80;;;0.20;99.90;;;;;;5115491;28;20828;-79
2022/04/02 15:30:30;;;;;;;7.87;6.77;;;0.00;99.90;;;;;;5116718;28;20445;-79
2022/04/02 15:33:12;;;;;;;11.27;9.23;;;0.20;99.90;;;;;;5115318;28;20407;-77
2022/04/02 15:35:43;;;;;;;16.07;13.60;;;0.30;99.90;;;;;;5113721;28;20547;-78
2022/04/02 15:38:19;;;;;;;11.23;10.07;;;0.10;99.90;;;;;;5116035;28;20781;-77
2022/04/02 15:40:58;;;;;;;18.47;16.23;;;-0.10;99.90;;;;;;5116791;28;20385;-77
2022/04/02 15:43:35;;;;;;;10.63;9.53;;;-0.50;99.90;;;;;;5114978;28;20755;-77
2022/04/02 15:46:23;;;;;;;20.53;15.93;;;-0.70;99.90;;;;;;5116662;28;20408;-78
2022/04/02 15:49:12;;;;;;;11.77;10.63;;;-1.00;99.90;;;;;;5114992;28;20436;-77
2022/04/02 15:51:52;;;;;;;18.33;16.47;;;-0.90;99.90;;;;;;5114377;28;20431;-77
2022/04/02 15:54:33;;;;;;;9.17;8.03;;;-0.90;99.90;;;;;;5115725;28;20405;-77
2022/04/02 15:57:02;;;;;;;10.33;8.27;;;-0.70;99.90;;;;;;5114856;28;20459;-78
2022/04/02 15:59:29;;;;;;;14.97;11.40;;;-0.80;99.90;;;;;;5115942;28;20773;-77
2022/04/02 16:01:55;;;;;;;21.50;13.60;;;-0.70;99.90;;;;;;5116790;28;20492;-77
2022/04/02 16:04:20;;;;;;;11.40;9.33;;;-0.50;99.90;;;;;;5114776;28;20956;-77
2022/04/02 16:06:47;;;;;;;7.73;6.73;;;;;;;;;;5116868;28;20176;-77
2022/04/02 16:09:18;;;;;;;11.27;8.80;;;-0.60;99.90;;;;;;5115005;28;20199;-77
2022/04/02 16:11:48;;;;;;;11.37;9.40;;;1.20;99.90;;;;;;5115776;28;20428;-77
2022/04/02 16:14:24;;;;;;;22.37;17.60;;;-0.60;99.90;;;;;;5113819;28;20935;-78
2022/04/02 16:16:50;;;;;;;18.33;14.00;;;-0.60;99.90;;;;;;5116759;28;20476;-77
2022/04/02 16:19:38;;;;;;;29.43;21.20;;;-0.60;99.90;;;;;;5116890;28;20507;-78
2022/04/02 16:22:11;;;;;;;10.40;8.10;;;-0.60;99.90;;;;;;5116422;28;20248;-77
2022/04/02 16:24:39;;;;;;;11.87;9.10;;;-0.70;99.90;;;;;;5115097;28;20406;-77
2022/04/02 16:27:06;;;;;;;12.23;10.70;;;-0.70;99.90;;;;;;5115248;28;20428;-78
2022/04/02 16:29:32;;;;;;;8.63;6.67;;;;;;;;;;5116401;28;20413;-77
2022/04/02 16:32:12;;;;;;;7.03;6.33;;;-1.00;99.90;;;;;;5116472;28;20412;-77
2022/04/02 16:34:42;;;;;;;10.57;7.03;;;-1.10;99.90;;;;;;5114205;28;20981;-77
2022/04/02 16:37:13;;;;;;;13.63;10.13;;;-1.20;99.90;;;;;;5118329;28;20419;-78
2022/04/02 16:39:45;;;;;;;21.87;18.73;;;-1.10;99.90;;;;;;5121307;28;20436;-78
2022/04/02 16:42:12;;;;;;;9.10;7.40;;;-1.10;99.90;;;;;;5121705;28;20399;-78
2022/04/02 16:44:55;;;;;;;3.90;3.50;;;-1.10;99.90;;;;;;5122079;28;20413;-78
2022/04/02 16:47:29;;;;;;;5.27;4.23;;;-1.40;99.90;;;;;;5120945;28;20467;-78
2022/04/02 16:49:57;;;;;;;9.17;7.00;;;-1.40;99.90;;;;;;5122142;28;20846;-78
2022/04/02 16:52:27;;;;;;;6.90;5.13;;;-1.60;99.90;;;;;;5120981;28;20409;-78
2022/04/02 16:54:53;;;;;;;5.97;5.33;;;;;;;;;;5120616;28;20419;-78
2022/04/02 16:57:22;;;;;;;8.10;7.03;;;-1.70;99.90;;;;;;5120376;28;20488;-78
2022/04/02 16:59:53;;;;;;;9.00;6.03;;;-1.60;99.90;;;;;;5121032;28;20206;-78
2022/04/02 17:02:38;;;;;;;6.13;5.13;;;0.40;99.90;;;;;;5123413;28;20401;-78
2022/04/02 17:05:08;;;;;;;10.13;7.10;;;-1.70;99.90;;;;;;5120980;28;20415;-77
2022/04/02 17:08:12;;;;;;;10.63;6.10;;;-1.70;99.90;;;;;;5121053;28;20429;-78
2022/04/02 17:10:38;;;;;;;10.70;7.80;;;;;;;;;;5099921;28;20945;-77
2022/04/02 17:13:06;;;;;;;7.70;6.60;;;-1.60;99.90;;;;;;5121297;28;20417;-78
2022/04/02 17:15:35;;;;;;;7.57;6.40;;;-1.60;99.90;;;;;;5121403;28;20995;-77
2022/04/02 17:18:09;;;;;;;10.33;8.87;;;-1.70;99.90;;;;;;5121184;28;20765;-77
2022/04/02 17:20:36;;;;;;;10.70;9.47;;;-1.70;99.90;;;;;;5121398;28;20392;-78
2022/04/02 17:23:03;;;;;;;6.43;5.63;;;;;;;;;;5121435;28;20492;-77
2022/04/02 17:25:34;;;;;;;9.23;7.43;;;-1.50;99.90;;;;;;5119831;28;20479;-79
2022/04/02 17:28:05;;;;;;;9.10;6.83;;;-1.30;99.90;;;;;;5120229;28;20508;-77
2022/04/02 17:30:35;;;;;;;11.53;7.97;;;-0.40;99.90;;;;;;5126473;28;20405;-77
2022/04/02 17:33:01;;;;;;;9.50;7.33;;;-1.70;99.90;;;;;;5126898;27;20442;-78
2022/04/02 17:35:34;;;;;;;7.77;6.97;;;-1.60;99.90;;;;;;5124208;28;20817;-79
2022/04/02 17:38:13;;;;;;;7.47;5.47;;;-1.60;99.90;;;;;;5125793;28;20440;-80
2022/04/02 17:40:39;;;;;;;8.47;6.10;;;;;;;;;;5132881;28;20400;-78
2022/04/02 17:43:07;;;;;;;5.83;5.13;;;-1.70;99.90;;;;;;5133215;28;20406;-78
2022/04/02 17:45:41;;;;;;;6.83;6.13;;;-1.70;99.90;;;;;;5131081;28;20421;-79
2022/04/02 17:48:10;;;;;;;8.47;7.57;;;-1.80;99.90;;;;;;5121472;28;20507;-79
2022/04/02 17:50:49;;;;;;;11.13;8.57;;;-1.90;99.90;;;;;;5123785;28;20442;-79
2022/04/02 17:53:26;;;;;;;98.33;55.37;;;-1.90;99.90;;;;;;5125655;28;20411;-78
2022/04/02 17:56:09;;;;;;;26.00;16.40;;;-1.90;99.90;;;;;;5124167;28;20445;-79
2022/04/02 17:58:40;;;;;;;11.70;7.50;;;-1.90;99.90;;;;;;5123146;28;20496;-80
2022/04/02 18:01:08;;;;;;;14.07;8.43;;;-1.90;99.90;;;;;;5125146;28;20404;-79
2022/04/02 18:03:48;;;;;;;9.17;7.53;;;-2.00;99.90;;;;;;5126534;28;20425;-80
2022/04/02 18:06:29;;;;;;;40.50;28.13;;;-1.80;99.90;;;;;;5126267;28;20828;-80
2022/04/02 18:08:57;;;;;;;10.40;8.00;;;-1.90;99.90;;;;;;5126840;28;20449;-80
2022/04/02 18:11:24;;;;;;;9.63;7.03;;;;;;;;;;5126085;28;20426;-80
2022/04/02 18:13:55;;;;;;;17.47;11.33;;;-1.80;99.90;;;;;;5123451;28;20418;-79
2022/04/02 18:16:23;;;;;;;9.57;6.30;;;-1.80;99.90;;;;;;5125628;28;20461;-81
2022/04/02 18:18:50;;;;;;;9.40;6.83;;;-1.80;99.90;;;;;;5125388;28;20520;-79
2022/04/02 18:21:20;;;;;;;10.13;6.77;;;;;;;;;;5125225;28;20409;-80
2022/04/02 18:23:47;;;;;;;6.90;5.63;;;;;;;;;;5124574;28;20410;-80
2022/04/02 18:26:14;;;;;;;7.03;5.40;;;;;;;;;;5122539;28;20415;-80
2022/04/02 18:28:40;;;;;;;6.37;5.07;;;;;;;;;;5122744;28;20421;-80
2022/04/02 18:31:06;;;;;;;8.70;6.07;;;;;;;;;;5124739;28;20417;-80
2022/04/02 18:33:32;;;;;;;10.73;7.00;;;-1.90;99.90;;;;;;5123497;28;20959;-80
2022/04/02 18:35:59;;;;;;;6.80;5.90;;;;;;;;;;5123744;28;20464;-80
2022/04/02 18:38:25;;;;;;;6.90;5.60;;;-2.10;99.90;;;;;;5123234;28;20425;-80
2022/04/02 18:40:52;;;;;;;8.87;5.80;;;;;;;;;;5123956;28;20412;-80
2022/04/02 18:43:19;;;;;;;11.10;7.30;;;-2.00;99.90;;;;;;5122231;28;20420;-80
2022/04/02 18:45:46;;;;;;;7.33;6.43;;;-1.90;99.90;;;;;;5122865;27;20450;-80
2022/04/02 18:48:13;;;;;;;6.93;5.80;;;-1.90;99.90;;;;;;5122956;28;20425;-80
2022/04/02 18:50:39;;;;;;;8.80;6.63;;;;;;;;;;5123546;28;20787;-81
2022/04/02 18:53:06;;;;;;;9.90;7.20;;;;;;;;;;5123978;28;20408;-81
2022/04/02 18:55:33;;;;;;;9.30;7.47;;;-1.90;99.90;;;;;;5123542;28;20468;-81
2022/04/02 18:57:59;;;;;;;8.20;5.73;;;;;;;;;;5128299;28;20464;-80
2022/04/02 19:00:25;;;;;;;7.97;6.67;;;;;;;;;;5131583;28;20409;-81
2022/04/02 19:02:51;;;;;;;7.43;6.43;;;;;;;;;;5124500;28;20863;-80
2022/04/02 19:05:17;;;;;;;10.50;7.10;;;;;;;;;;5123730;28;20421;-81
2022/04/02 19:07:44;;;;;;;8.60;6.77;;;;;;;;;;5123717;28;20848;-80
2022/04/02 19:10:11;;;;;;;8.27;6.47;;;-2.00;99.90;;;;;;5123126;28;20442;-81
2022/04/02 19:12:37;;;;;;;6.67;6.03;;;;;;;;;;5124180;28;20409;-80
2022/04/02 19:15:04;;;;;;;9.37;7.60;;;-1.90;99.90;;;;;;5123261;28;20478;-80
2022/04/02 19:17:30;;;;;;;10.00;6.97;;;;;;;;;;5125173;28;20429;-81
2022/04/02 19:19:56;;;;;;;8.20;6.60;;;-1.90;99.90;;;;;;5124077;28;20406;-81
2022/04/02 19:22:22;;;;;;;9.60;7.00;;;;;;;;;;5124706;28;20444;-81
2022/04/02 19:24:48;;;;;;;10.40;6.67;;;-1.90;99.90;;;;;;5124452;28;20224;-81
2022/04/02 19:27:14;;;;;;;8.77;7.60;;;-1.90;99.90;;;;;;5124167;28;20410;-80
2022/04/02 19:29:39;;;;;;;8.73;6.53;;;-1.90;99.90;;;;;;5123371;28;20264;-81
2022/04/02 19:32:05;;;;;;;7.87;6.43;;;-1.80;99.90;;;;;;5121766;28;20909;-81
2022/04/02 19:34:32;;;;;;;8.53;6.83;;;-1.80;99.90;;;;;;5122764;28;20211;-81
2022/04/02 19:36:58;;;;;;;7.77;6.47;;;-0.10;99.90;;;;;;5122572;28;20488;-80
2022/04/02 19:39:24;;;;;;;9.87;8.57;;;0.10;99.90;;;;;;5122341;28;20440;-81
2022/04/02 19:41:49;;;;;;;9.10;7.87;;;-1.90;99.90;;;;;;5124379;28;20171;-80
2022/04/02 19:44:15;;;;;;;11.47;8.00;;;-1.90;99.90;;;;;;5123283;28;20419;-81
2022/04/02 19:46:42;;;;;;;9.93;8.17;;;-1.90;99.90;;;;;;5124696;28;20241;-81
2022/04/02 19:49:09;;;;;;;12.83;8.90;;;-0.30;99.90;;;;;;5124299;28;20203;-80
2022/04/02 19:51:35;;;;;;;12.70;9.70;;;0.50;99.90;;;;;;5124823;28;20449;-80
2022/04/02 19:54:02;;;;;;;9.57;8.13;;;-1.80;99.90;;;;;;5124665;28;20417;-81
2022/04/02 19:56:29;;;;;;;9.63;7.80;;;-1.80;99.90;;;;;;5124724;28;20195;-80
2022/04/02 19:58:56;;;;;;;8.60;7.70;;;-1.80;99.90;;;;;;5124463;28;20429;-81
2022/04/02 20:01:22;;;;;;;11.47;8.60;;;;;;;;;;5124038;28;20421;-81
2022/04/02 20:03:48;;;;;;;9.63;7.93;;;-1.80;99.90;;;;;;5124516;28;20404;-80
2022/04/02 20:06:13;;;;;;;10.03;7.67;;;-1.80;99.90;;;;;;5123163;28;20486;-82
2022/04/02 20:08:42;;;;;;;12.63;8.13;;;-1.20;99.90;;;;;;5124082;28;20272;-80
2022/04/02 20:11:09;;;;;;;11.00;7.33;;;0.70;99.90;;;;;;5123316;28;20174;-81
2022/04/02 20:13:36;;;;;;;10.17;7.83;;;;;;;;;;5123264;28;20763;-80
2022/04/02 20:16:03;;;;;;;9.60;6.63;;;;;;;;;;5124759;28;20455;-80
2022/04/02 20:18:29;;;;;;;12.10;8.00;;;-1.80;99.90;;;;;;5124095;28;20518;-80
2022/04/02 20:20:55;;;;;;;12.37;9.23;;;-0.30;99.90;;;;;;5122567;28;20413;-80
2022/04/02 20:23:22;;;;;;;11.90;8.87;;;;;;;;;;5123805;28;20477;-80
2022/04/02 20:25:47;;;;;;;11.40;8.63;;;-1.80;99.90;;;;;;5123301;28;20440;-80
2022/04/02 20:28:13;;;;;;;14.17;9.07;;;-1.90;99.90;;;;;;5124358;28;20432;-81
2022/04/02 20:30:44;;;;;;;8.97;7.40;;;;;;;;;;5122772;28;20175;-80
2022/04/02 20:33:14;;;;;;;9.23;7.13;;;-1.80;99.90;;;;;;5123013;28;20168;-81
2022/04/02 20:35:40;;;;;;;10.97;7.20;;;0.70;99.90;;;;;;5124793;28;20440;-81
